sensor_id;sensor_type;location;lat;lon;timestamp;pressure;altitude;pressure_sealevel;temperature;humidity
21011;BME280;10663;42.714;23.274;2023-11-18T00:00:09;94131.66;;;8.07;82.10
21011;BME280;10663;42.714;23.274;2023-11-18T00:01:44;94131.09;;;7.90;81.58
21011;BME280;10663;42.714;23.274;2023-11-18T00:03:15;94132.94;;;7.84;81.98
21011;BME280;10663;42.714;23.274;2023-11-18T00:04:47;94111.84;;;7.84;81.98
21011;BME280;10663;42.714;23.274;2023-11-18T00:06:18;94117.38;;;7.78;82.12
21011;BME280;10663;42.714;23.274;2023-11-18T00:07:49;94107.38;;;7.80;82.10
21011;BME280;10663;42.714;23.274;2023-11-18T00:09:20;94132.69;;;8.01;81.31
21011;BME280;10663;42.714;23.274;2023-11-18T00:10:51;94108.69;;;7.82;82.12
21011;BME280;10663;42.714;23.274;2023-11-18T00:12:21;94115.00;;;7.71;82.28
21011;BME280;10663;42.714;23.274;2023-11-18T00:13:54;94101.06;;;8.16;81.21
21011;BME280;10663;42.714;23.274;2023-11-18T00:15:25;94116.88;;;7.91;81.55
21011;BME280;10663;42.714;23.274;2023-11-18T00:16:56;94117.09;;;7.74;81.68
21011;BME280;10663;42.714;23.274;2023-11-18T00:18:29;94117.38;;;7.83;81.53
21011;BME280;10663;42.714;23.274;2023-11-18T00:20:02;94136.38;;;7.90;81.40
21011;BME280;10663;42.714;23.274;2023-11-18T00:21:39;94140.59;;;8.01;80.85
21011;BME280;10663;42.714;23.274;2023-11-18T00:23:10;94161.91;;;7.79;81.31
21011;BME280;10663;42.714;23.274;2023-11-18T00:24:41;94157.44;;;7.80;81.75
21011;BME280;10663;42.714;23.274;2023-11-18T00:26:11;94122.66;;;7.88;81.73
21011;BME280;10663;42.714;23.274;2023-11-18T00:27:44;94124.50;;;7.87;81.73
21011;BME280;10663;42.714;23.274;2023-11-18T00:29:15;94115.78;;;7.72;81.92
21011;BME280;10663;42.714;23.274;2023-11-18T00:30:45;94112.91;;;7.78;81.86
21011;BME280;10663;42.714;23.274;2023-11-18T00:32:16;94106.56;;;7.74;81.65
21011;BME280;10663;42.714;23.274;2023-11-18T00:33:47;94103.94;;;7.79;81.88
21011;BME280;10663;42.714;23.274;2023-11-18T00:35:18;94108.84;;;7.40;82.54
21011;BME280;10663;42.714;23.274;2023-11-18T00:36:49;94115.69;;;7.41;82.89
21011;BME280;10663;42.714;23.274;2023-11-18T00:38:19;94118.38;;;7.51;82.96
21011;BME280;10663;42.714;23.274;2023-11-18T00:39:51;94106.84;;;7.73;82.07
21011;BME280;10663;42.714;23.274;2023-11-18T00:41:22;94100.78;;;7.77;82.41
21011;BME280;10663;42.714;23.274;2023-11-18T00:42:53;94114.75;;;7.73;81.81
21011;BME280;10663;42.714;23.274;2023-11-18T00:44:24;94108.41;;;7.79;81.51
21011;BME280;10663;42.714;23.274;2023-11-18T00:45:54;94110.25;;;7.63;81.91
21011;BME280;10663;42.714;23.274;2023-11-18T00:47:25;94109.19;;;7.84;81.18
21011;BME280;10663;42.714;23.274;2023-11-18T00:48:56;94125.47;;;7.56;81.58
21011;BME280;10663;42.714;23.274;2023-11-18T00:50:28;94110.97;;;7.48;81.83
21011;BME280;10663;42.714;23.274;2023-11-18T00:51:59;94113.59;;;7.43;82.37
21011;BME280;10663;42.714;23.274;2023-11-18T00:53:29;94110.47;;;7.51;82.74
21011;BME280;10663;42.714;23.274;2023-11-18T00:55:00;94121.28;;;7.60;81.59
21011;BME280;10663;42.714;23.274;2023-11-18T00:56:31;94125.50;;;7.61;81.60
21011;BME280;10663;42.714;23.274;2023-11-18T00:58:03;94121.06;;;7.77;81.50
21011;BME280;10663;42.714;23.274;2023-11-18T00:59:35;94113.94;;;7.72;81.84
21011;BME280;10663;42.714;23.274;2023-11-18T01:01:06;94124.47;;;7.62;81.54
21011;BME280;10663;42.714;23.274;2023-11-18T01:02:37;94124.72;;;7.61;81.62
21011;BME280;10663;42.714;23.274;2023-11-18T01:04:09;94119.72;;;7.69;81.71
21011;BME280;10663;42.714;23.274;2023-11-18T01:05:41;94142.63;;;7.59;81.86
21011;BME280;10663;42.714;23.274;2023-11-18T01:07:12;94141.28;;;7.56;82.10
21011;BME280;10663;42.714;23.274;2023-11-18T01:08:46;94128.66;;;7.53;81.68
21011;BME280;10663;42.714;23.274;2023-11-18T01:10:17;94147.38;;;7.62;81.65
21011;BME280;10663;42.714;23.274;2023-11-18T01:11:49;94141.59;;;7.70;81.63
21011;BME280;10663;42.714;23.274;2023-11-18T01:13:20;94143.16;;;7.61;81.97
21011;BME280;10663;42.714;23.274;2023-11-18T01:14:51;94140.03;;;7.79;80.87
21011;BME280;10663;42.714;23.274;2023-11-18T01:16:22;94138.69;;;7.66;81.33
21011;BME280;10663;42.714;23.274;2023-11-18T01:17:52;94151.63;;;7.73;81.62
21011;BME280;10663;42.714;23.274;2023-11-18T01:19:23;94152.16;;;7.85;81.07
21011;BME280;10663;42.714;23.274;2023-11-18T01:20:54;94150.25;;;7.50;81.70
21011;BME280;10663;42.714;23.274;2023-11-18T01:22:25;94142.34;;;7.50;81.89
21011;BME280;10663;42.714;23.274;2023-11-18T01:23:55;94155.22;;;7.41;81.83
21011;BME280;10663;42.714;23.274;2023-11-18T01:25:26;94149.47;;;7.55;81.45
21011;BME280;10663;42.714;23.274;2023-11-18T01:26:57;94157.38;;;7.60;81.38
21011;BME280;10663;42.714;23.274;2023-11-18T01:28:30;94155.31;;;7.72;81.14
21011;BME280;10663;42.714;23.274;2023-11-18T01:30:02;94195.06;;;7.60;80.97
21011;BME280;10663;42.714;23.274;2023-11-18T01:31:35;94148.97;;;7.68;81.08
21011;BME280;10663;42.714;23.274;2023-11-18T01:33:05;94147.66;;;7.70;80.77
21011;BME280;10663;42.714;23.274;2023-11-18T01:34:38;94168.88;;;7.33;81.24
21011;BME280;10663;42.714;23.274;2023-11-18T01:36:14;94181.28;;;7.43;81.68
21011;BME280;10663;42.714;23.274;2023-11-18T01:37:44;94165.47;;;7.38;81.31
21011;BME280;10663;42.714;23.274;2023-11-18T01:39:16;94187.06;;;7.40;81.56
21011;BME280;10663;42.714;23.274;2023-11-18T01:40:48;94144.06;;;7.19;81.73
21011;BME280;10663;42.714;23.274;2023-11-18T01:42:18;94153.50;;;7.10;81.86
21011;BME280;10663;42.714;23.274;2023-11-18T01:43:49;94148.75;;;7.07;81.31
21011;BME280;10663;42.714;23.274;2023-11-18T01:45:20;94202.81;;;7.25;81.57
21011;BME280;10663;42.714;23.274;2023-11-18T01:46:51;94161.13;;;7.11;81.38
21011;BME280;10663;42.714;23.274;2023-11-18T01:48:22;94147.28;;;7.31;81.09
21011;BME280;10663;42.714;23.274;2023-11-18T01:49:53;94174.50;;;7.00;81.76
21011;BME280;10663;42.714;23.274;2023-11-18T01:51:24;94194.25;;;7.02;80.94
21011;BME280;10663;42.714;23.274;2023-11-18T01:52:55;94168.97;;;6.96;80.84
21011;BME280;10663;42.714;23.274;2023-11-18T01:54:26;94164.28;;;7.08;80.88
21011;BME280;10663;42.714;23.274;2023-11-18T01:55:57;94193.38;;;6.87;80.74
21011;BME280;10663;42.714;23.274;2023-11-18T01:57:29;94158.44;;;6.96;80.31
21011;BME280;10663;42.714;23.274;2023-11-18T01:59:00;94154.06;;;7.17;79.82
21011;BME280;10663;42.714;23.274;2023-11-18T02:00:36;94156.03;;;6.95;80.81
21011;BME280;10663;42.714;23.274;2023-11-18T02:02:09;94159.59;;;7.21;79.92
21011;BME280;10663;42.714;23.274;2023-11-18T02:03:40;94154.63;;;6.77;80.15
21011;BME280;10663;42.714;23.274;2023-11-18T02:05:13;94162.94;;;7.01;79.68
21011;BME280;10663;42.714;23.274;2023-11-18T02:06:43;94168.63;;;6.83;79.66
21011;BME280;10663;42.714;23.274;2023-11-18T02:08:15;94163.94;;;6.90;78.80
21011;BME280;10663;42.714;23.274;2023-11-18T02:09:47;94182.38;;;6.95;78.70
21011;BME280;10663;42.714;23.274;2023-11-18T02:11:26;94169.56;;;6.66;79.18
21011;BME280;10663;42.714;23.274;2023-11-18T02:13:06;94165.44;;;6.81;78.63
21011;BME280;10663;42.714;23.274;2023-11-18T02:14:39;94163.13;;;6.89;78.31
21011;BME280;10663;42.714;23.274;2023-11-18T02:16:10;94152.31;;;6.86;78.80
21011;BME280;10663;42.714;23.274;2023-11-18T02:17:43;94182.75;;;6.71;78.85
21011;BME280;10663;42.714;23.274;2023-11-18T02:19:24;94184.28;;;6.62;79.28
21011;BME280;10663;42.714;23.274;2023-11-18T02:20:56;94169.53;;;6.61;79.24
21011;BME280;10663;42.714;23.274;2023-11-18T02:22:31;94185.25;;;6.56;78.96
21011;BME280;10663;42.714;23.274;2023-11-18T02:24:02;94165.00;;;6.57;78.23
21011;BME280;10663;42.714;23.274;2023-11-18T02:25:45;94172.34;;;6.50;79.37
21011;BME280;10663;42.714;23.274;2023-11-18T02:27:16;94155.59;;;6.66;78.34
21011;BME280;10663;42.714;23.274;2023-11-18T02:28:50;94186.06;;;6.57;77.82
21011;BME280;10663;42.714;23.274;2023-11-18T02:30:22;94174.41;;;6.48;77.94
21011;BME280;10663;42.714;23.274;2023-11-18T02:31:57;94192.72;;;6.64;77.66
21011;BME280;10663;42.714;23.274;2023-11-18T02:33:38;94187.88;;;6.51;77.70
21011;BME280;10663;42.714;23.274;2023-11-18T02:35:15;94192.41;;;6.61;77.60
21011;BME280;10663;42.714;23.274;2023-11-18T02:36:49;94151.50;;;6.43;78.26
21011;BME280;10663;42.714;23.274;2023-11-18T02:38:23;94209.13;;;6.45;78.11
21011;BME280;10663;42.714;23.274;2023-11-18T02:40:04;94211.75;;;6.45;77.45
21011;BME280;10663;42.714;23.274;2023-11-18T02:41:42;94169.22;;;6.53;77.77
21011;BME280;10663;42.714;23.274;2023-11-18T02:43:18;94181.00;;;6.50;77.98
21011;BME280;10663;42.714;23.274;2023-11-18T02:44:50;94208.91;;;6.51;77.53
21011;BME280;10663;42.714;23.274;2023-11-18T02:46:29;94194.06;;;6.72;77.24
21011;BME280;10663;42.714;23.274;2023-11-18T02:48:00;94175.13;;;6.75;76.21
21011;BME280;10663;42.714;23.274;2023-11-18T02:49:32;94206.19;;;6.41;76.44
21011;BME280;10663;42.714;23.274;2023-11-18T02:51:04;94199.81;;;6.32;77.51
21011;BME280;10663;42.714;23.274;2023-11-18T02:52:35;94211.25;;;6.21;77.53
21011;BME280;10663;42.714;23.274;2023-11-18T02:54:06;94198.13;;;6.21;77.07
21011;BME280;10663;42.714;23.274;2023-11-18T02:55:37;94200.16;;;6.14;77.60
21011;BME280;10663;42.714;23.274;2023-11-18T02:57:07;94223.34;;;6.17;77.53
21011;BME280;10663;42.714;23.274;2023-11-18T02:58:39;94213.97;;;5.99;77.64
21011;BME280;10663;42.714;23.274;2023-11-18T03:00:10;94186.56;;;6.22;77.30
21011;BME280;10663;42.714;23.274;2023-11-18T03:01:53;94187.13;;;6.24;77.04
21011;BME280;10663;42.714;23.274;2023-11-18T03:03:26;94189.06;;;5.85;78.24
21011;BME280;10663;42.714;23.274;2023-11-18T03:04:58;94173.22;;;6.01;77.18
21011;BME280;10663;42.714;23.274;2023-11-18T03:06:28;94176.41;;;6.04;77.58
21011;BME280;10663;42.714;23.274;2023-11-18T03:07:59;94207.22;;;6.08;77.33
21011;BME280;10663;42.714;23.274;2023-11-18T03:09:33;94205.84;;;6.00;76.94
21011;BME280;10663;42.714;23.274;2023-11-18T03:11:05;94193.63;;;5.89;77.95
21011;BME280;10663;42.714;23.274;2023-11-18T03:12:39;94184.59;;;6.07;77.41
21011;BME280;10663;42.714;23.274;2023-11-18T03:14:10;94187.78;;;5.87;77.68
21011;BME280;10663;42.714;23.274;2023-11-18T03:15:40;94177.09;;;6.21;77.39
21011;BME280;10663;42.714;23.274;2023-11-18T03:17:11;94201.78;;;5.93;77.40
21011;BME280;10663;42.714;23.274;2023-11-18T03:18:42;94189.41;;;6.15;77.25
21011;BME280;10663;42.714;23.274;2023-11-18T03:20:17;94241.19;;;6.15;77.13
21011;BME280;10663;42.714;23.274;2023-11-18T03:21:51;94224.59;;;5.65;78.35
21011;BME280;10663;42.714;23.274;2023-11-18T03:23:23;94206.56;;;5.74;77.76
21011;BME280;10663;42.714;23.274;2023-11-18T03:24:54;94233.50;;;5.86;77.31
21011;BME280;10663;42.714;23.274;2023-11-18T03:26:25;94237.19;;;5.63;77.52
21011;BME280;10663;42.714;23.274;2023-11-18T03:27:56;94248.66;;;5.79;77.40
21011;BME280;10663;42.714;23.274;2023-11-18T03:29:27;94231.38;;;5.61;77.12
21011;BME280;10663;42.714;23.274;2023-11-18T03:30:57;94262.03;;;5.56;77.54
21011;BME280;10663;42.714;23.274;2023-11-18T03:32:29;94210.59;;;5.82;77.26
21011;BME280;10663;42.714;23.274;2023-11-18T03:34:01;94217.13;;;5.79;77.10
21011;BME280;10663;42.714;23.274;2023-11-18T03:35:32;94224.84;;;5.64;77.46
21011;BME280;10663;42.714;23.274;2023-11-18T03:37:03;94244.44;;;5.56;76.83
21011;BME280;10663;42.714;23.274;2023-11-18T03:38:36;94245.91;;;5.47;77.34
21011;BME280;10663;42.714;23.274;2023-11-18T03:40:08;94231.69;;;5.43;77.14
21011;BME280;10663;42.714;23.274;2023-11-18T03:41:39;94242.91;;;5.39;77.62
21011;BME280;10663;42.714;23.274;2023-11-18T03:43:13;94236.19;;;5.48;77.20
21011;BME280;10663;42.714;23.274;2023-11-18T03:44:44;94201.75;;;5.66;76.98
21011;BME280;10663;42.714;23.274;2023-11-18T03:46:18;94229.34;;;5.47;76.17
21011;BME280;10663;42.714;23.274;2023-11-18T03:47:48;94238.81;;;5.48;76.79
21011;BME280;10663;42.714;23.274;2023-11-18T03:49:20;94243.28;;;5.47;76.18
21011;BME280;10663;42.714;23.274;2023-11-18T03:50:51;94221.31;;;5.53;75.99
21011;BME280;10663;42.714;23.274;2023-11-18T03:52:22;94272.84;;;5.21;77.52
21011;BME280;10663;42.714;23.274;2023-11-18T03:53:53;94241.97;;;5.28;76.45
21011;BME280;10663;42.714;23.274;2023-11-18T03:55:24;94198.34;;;5.44;76.74
21011;BME280;10663;42.714;23.274;2023-11-18T03:56:56;94204.88;;;5.41;76.40
21011;BME280;10663;42.714;23.274;2023-11-18T03:58:27;94206.72;;;5.41;75.85
21011;BME280;10663;42.714;23.274;2023-11-18T03:59:58;94211.31;;;5.12;76.26
21011;BME280;10663;42.714;23.274;2023-11-18T04:01:29;94194.91;;;5.21;76.12
21011;BME280;10663;42.714;23.274;2023-11-18T04:03:00;94200.69;;;5.18;76.38
21011;BME280;10663;42.714;23.274;2023-11-18T04:04:31;94203.25;;;4.97;77.05
21011;BME280;10663;42.714;23.274;2023-11-18T04:06:02;94234.28;;;5.00;76.43
21011;BME280;10663;42.714;23.274;2023-11-18T04:07:34;94268.97;;;5.23;76.00
21011;BME280;10663;42.714;23.274;2023-11-18T04:09:05;94222.09;;;5.32;75.02
21011;BME280;10663;42.714;23.274;2023-11-18T04:10:36;94231.09;;;5.36;75.31
21011;BME280;10663;42.714;23.274;2023-11-18T04:12:07;94240.44;;;5.10;75.89
21011;BME280;10663;42.714;23.274;2023-11-18T04:13:38;94283.34;;;5.21;75.13
21011;BME280;10663;42.714;23.274;2023-11-18T04:15:09;94228.56;;;5.24;75.62
21011;BME280;10663;42.714;23.274;2023-11-18T04:16:41;94222.00;;;5.05;75.36
21011;BME280;10663;42.714;23.274;2023-11-18T04:18:12;94248.75;;;5.24;75.57
21011;BME280;10663;42.714;23.274;2023-11-18T04:19:42;94245.00;;;5.37;74.84
21011;BME280;10663;42.714;23.274;2023-11-18T04:21:13;94235.28;;;5.37;74.33
21011;BME280;10663;42.714;23.274;2023-11-18T04:22:44;94257.84;;;5.16;75.32
21011;BME280;10663;42.714;23.274;2023-11-18T04:24:15;94247.66;;;5.20;75.67
21011;BME280;10663;42.714;23.274;2023-11-18T04:25:46;94256.84;;;5.01;75.76
21011;BME280;10663;42.714;23.274;2023-11-18T04:27:17;94272.56;;;5.17;75.29
21011;BME280;10663;42.714;23.274;2023-11-18T04:28:48;94233.06;;;5.29;75.12
21011;BME280;10663;42.714;23.274;2023-11-18T04:30:18;94240.38;;;5.05;75.41
21011;BME280;10663;42.714;23.274;2023-11-18T04:31:49;94254.56;;;5.26;74.85
21011;BME280;10663;42.714;23.274;2023-11-18T04:33:20;94237.97;;;5.42;75.06
21011;BME280;10663;42.714;23.274;2023-11-18T04:34:51;94240.09;;;5.23;75.23
21011;BME280;10663;42.714;23.274;2023-11-18T04:36:22;94232.56;;;5.10;75.17
21011;BME280;10663;42.714;23.274;2023-11-18T04:37:52;94228.56;;;5.24;75.29
21011;BME280;10663;42.714;23.274;2023-11-18T04:39:23;94256.72;;;5.12;74.96
21011;BME280;10663;42.714;23.274;2023-11-18T04:40:55;94238.44;;;5.39;74.31
21011;BME280;10663;42.714;23.274;2023-11-18T04:42:26;94242.44;;;5.42;74.11
21011;BME280;10663;42.714;23.274;2023-11-18T04:44:00;94249.50;;;5.41;74.33
21011;BME280;10663;42.714;23.274;2023-11-18T04:45:30;94261.88;;;5.24;74.49
21011;BME280;10663;42.714;23.274;2023-11-18T04:47:01;94240.38;;;5.44;74.38
21011;BME280;10663;42.714;23.274;2023-11-18T04:48:32;94282.31;;;5.22;74.86
21011;BME280;10663;42.714;23.274;2023-11-18T04:50:04;94242.94;;;5.22;74.21
21011;BME280;10663;42.714;23.274;2023-11-18T04:51:34;94252.09;;;5.36;74.36
21011;BME280;10663;42.714;23.274;2023-11-18T04:53:06;94266.53;;;5.17;74.69
21011;BME280;10663;42.714;23.274;2023-11-18T04:54:38;94261.97;;;5.12;74.53
21011;BME280;10663;42.714;23.274;2023-11-18T04:56:09;94267.28;;;5.34;73.98
21011;BME280;10663;42.714;23.274;2023-11-18T04:57:40;94264.03;;;5.49;72.99
21011;BME280;10663;42.714;23.274;2023-11-18T04:59:11;94315.97;;;5.25;73.83
21011;BME280;10663;42.714;23.274;2023-11-18T05:00:42;94282.38;;;5.44;73.96
21011;BME280;10663;42.714;23.274;2023-11-18T05:02:13;94268.38;;;5.38;73.45
21011;BME280;10663;42.714;23.274;2023-11-18T05:03:43;94271.66;;;5.28;73.17
21011;BME280;10663;42.714;23.274;2023-11-18T05:05:15;94321.84;;;5.32;73.67
21011;BME280;10663;42.714;23.274;2023-11-18T05:06:46;94260.25;;;5.40;73.50
21011;BME280;10663;42.714;23.274;2023-11-18T05:08:18;94275.19;;;5.17;73.78
21011;BME280;10663;42.714;23.274;2023-11-18T05:09:49;94252.50;;;5.11;73.79
21011;BME280;10663;42.714;23.274;2023-11-18T05:11:20;94268.81;;;5.13;73.42
21011;BME280;10663;42.714;23.274;2023-11-18T05:12:51;94255.84;;;5.23;73.77
21011;BME280;10663;42.714;23.274;2023-11-18T05:14:26;94264.13;;;5.15;73.45
21011;BME280;10663;42.714;23.274;2023-11-18T05:15:57;94266.47;;;4.95;73.75
21011;BME280;10663;42.714;23.274;2023-11-18T05:17:27;94253.31;;;5.12;73.45
21011;BME280;10663;42.714;23.274;2023-11-18T05:18:58;94250.31;;;5.03;73.71
21011;BME280;10663;42.714;23.274;2023-11-18T05:20:29;94243.09;;;5.32;73.42
21011;BME280;10663;42.714;23.274;2023-11-18T05:22:01;94301.66;;;5.16;73.26
21011;BME280;10663;42.714;23.274;2023-11-18T05:23:34;94267.16;;;5.07;73.48
21011;BME280;10663;42.714;23.274;2023-11-18T05:25:06;94292.53;;;5.02;73.89
21011;BME280;10663;42.714;23.274;2023-11-18T05:26:36;94282.19;;;5.12;73.41
21011;BME280;10663;42.714;23.274;2023-11-18T05:28:07;94311.69;;;5.02;73.39
21011;BME280;10663;42.714;23.274;2023-11-18T05:29:41;94255.88;;;5.07;72.78
21011;BME280;10663;42.714;23.274;2023-11-18T05:31:12;94236.78;;;5.11;73.30
21011;BME280;10663;42.714;23.274;2023-11-18T05:32:42;94305.81;;;4.95;73.15
21011;BME280;10663;42.714;23.274;2023-11-18T05:34:14;94249.13;;;4.94;73.20
21011;BME280;10663;42.714;23.274;2023-11-18T05:35:45;94245.00;;;4.98;73.54
21011;BME280;10663;42.714;23.274;2023-11-18T05:37:20;94273.69;;;5.05;73.13
21011;BME280;10663;42.714;23.274;2023-11-18T05:38:51;94279.16;;;5.03;73.18
21011;BME280;10663;42.714;23.274;2023-11-18T05:40:22;94248.25;;;5.05;73.41
21011;BME280;10663;42.714;23.274;2023-11-18T05:41:53;94240.28;;;5.17;73.05
21011;BME280;10663;42.714;23.274;2023-11-18T05:43:30;94230.75;;;4.94;73.70
21011;BME280;10663;42.714;23.274;2023-11-18T05:45:07;94233.56;;;5.26;73.29
21011;BME280;10663;42.714;23.274;2023-11-18T05:46:39;94228.53;;;5.03;73.20
21011;BME280;10663;42.714;23.274;2023-11-18T05:48:10;94284.81;;;4.95;73.75
21011;BME280;10663;42.714;23.274;2023-11-18T05:49:41;94269.25;;;4.72;74.69
21011;BME280;10663;42.714;23.274;2023-11-18T05:51:12;94252.88;;;4.98;73.16
21011;BME280;10663;42.714;23.274;2023-11-18T05:52:43;94242.19;;;5.05;74.18
21011;BME280;10663;42.714;23.274;2023-11-18T05:54:13;94237.38;;;4.97;73.73
21011;BME280;10663;42.714;23.274;2023-11-18T05:55:44;94256.50;;;5.14;73.55
21011;BME280;10663;42.714;23.274;2023-11-18T05:57:15;94251.94;;;4.71;74.77
21011;BME280;10663;42.714;23.274;2023-11-18T05:58:47;94268.25;;;5.11;73.01
21011;BME280;10663;42.714;23.274;2023-11-18T06:00:17;94245.16;;;5.30;72.93
21011;BME280;10663;42.714;23.274;2023-11-18T06:01:49;94255.09;;;5.28;72.88
21011;BME280;10663;42.714;23.274;2023-11-18T06:03:20;94272.59;;;5.01;73.35
21011;BME280;10663;42.714;23.274;2023-11-18T06:04:51;94280.28;;;5.07;74.57
21011;BME280;10663;42.714;23.274;2023-11-18T06:06:22;94249.50;;;5.03;75.42
21011;BME280;10663;42.714;23.274;2023-11-18T06:07:53;94260.84;;;4.70;76.33
21011;BME280;10663;42.714;23.274;2023-11-18T06:09:24;94269.56;;;4.42;77.25
21011;BME280;10663;42.714;23.274;2023-11-18T06:10:56;94246.06;;;4.80;77.15
21011;BME280;10663;42.714;23.274;2023-11-18T06:12:27;94258.34;;;4.46;77.85
21011;BME280;10663;42.714;23.274;2023-11-18T06:13:57;94263.22;;;4.88;77.49
21011;BME280;10663;42.714;23.274;2023-11-18T06:15:28;94271.66;;;4.90;77.42
21011;BME280;10663;42.714;23.274;2023-11-18T06:16:59;94289.50;;;4.60;77.92
21011;BME280;10663;42.714;23.274;2023-11-18T06:18:29;94279.25;;;4.75;77.03
21011;BME280;10663;42.714;23.274;2023-11-18T06:20:02;94264.56;;;4.91;76.38
21011;BME280;10663;42.714;23.274;2023-11-18T06:21:36;94265.09;;;4.93;76.45
21011;BME280;10663;42.714;23.274;2023-11-18T06:23:07;94269.88;;;4.79;76.55
21011;BME280;10663;42.714;23.274;2023-11-18T06:24:38;94282.53;;;4.82;76.29
21011;BME280;10663;42.714;23.274;2023-11-18T06:26:09;94273.31;;;4.79;75.70
21011;BME280;10663;42.714;23.274;2023-11-18T06:27:43;94285.06;;;4.94;75.31
21011;BME280;10663;42.714;23.274;2023-11-18T06:29:15;94311.22;;;4.72;75.60
21011;BME280;10663;42.714;23.274;2023-11-18T06:30:46;94302.88;;;4.92;75.05
21011;BME280;10663;42.714;23.274;2023-11-18T06:32:17;94288.25;;;4.96;75.15
21011;BME280;10663;42.714;23.274;2023-11-18T06:33:48;94309.22;;;4.79;75.37
21011;BME280;10663;42.714;23.274;2023-11-18T06:35:19;94268.13;;;4.84;75.50
21011;BME280;10663;42.714;23.274;2023-11-18T06:36:52;94285.97;;;5.21;73.85
21011;BME280;10663;42.714;23.274;2023-11-18T06:38:23;94311.78;;;5.07;73.87
21011;BME280;10663;42.714;23.274;2023-11-18T06:39:55;94282.53;;;4.99;74.06
21011;BME280;10663;42.714;23.274;2023-11-18T06:41:26;94265.63;;;5.11;73.50
21011;BME280;10663;42.714;23.274;2023-11-18T06:43:03;94280.47;;;5.01;73.12
21011;BME280;10663;42.714;23.274;2023-11-18T06:44:41;94263.53;;;4.75;73.88
21011;BME280;10663;42.714;23.274;2023-11-18T06:46:11;94291.66;;;4.96;73.48
21011;BME280;10663;42.714;23.274;2023-11-18T06:47:44;94329.00;;;5.20;72.54
21011;BME280;10663;42.714;23.274;2023-11-18T06:49:15;94298.66;;;5.07;72.87
21011;BME280;10663;42.714;23.274;2023-11-18T06:50:46;94286.25;;;5.03;73.44
21011;BME280;10663;42.714;23.274;2023-11-18T06:52:17;94280.69;;;4.99;73.37
21011;BME280;10663;42.714;23.274;2023-11-18T06:53:49;94305.59;;;4.80;73.76
21011;BME280;10663;42.714;23.274;2023-11-18T06:55:20;94276.06;;;5.06;73.30
21011;BME280;10663;42.714;23.274;2023-11-18T06:56:51;94290.47;;;5.04;73.38
21011;BME280;10663;42.714;23.274;2023-11-18T06:58:23;94365.63;;;5.10;72.80
21011;BME280;10663;42.714;23.274;2023-11-18T06:59:54;94291.09;;;5.11;73.34
21011;BME280;10663;42.714;23.274;2023-11-18T07:01:24;94274.41;;;5.39;72.23
21011;BME280;10663;42.714;23.274;2023-11-18T07:02:55;94303.34;;;5.05;72.72
21011;BME280;10663;42.714;23.274;2023-11-18T07:04:26;94305.53;;;5.30;72.05
21011;BME280;10663;42.714;23.274;2023-11-18T07:05:57;94323.06;;;5.24;72.44
21011;BME280;10663;42.714;23.274;2023-11-18T07:07:28;94322.97;;;5.19;72.72
21011;BME280;10663;42.714;23.274;2023-11-18T07:08:58;94325.59;;;5.03;72.37
21011;BME280;10663;42.714;23.274;2023-11-18T07:10:31;94294.34;;;5.01;73.00
21011;BME280;10663;42.714;23.274;2023-11-18T07:12:03;94346.34;;;4.71;73.60
21011;BME280;10663;42.714;23.274;2023-11-18T07:13:36;94298.31;;;5.04;73.63
21011;BME280;10663;42.714;23.274;2023-11-18T07:15:08;94343.66;;;4.99;73.68
21011;BME280;10663;42.714;23.274;2023-11-18T07:16:41;94291.09;;;5.11;73.08
21011;BME280;10663;42.714;23.274;2023-11-18T07:18:12;94337.00;;;4.92;73.54
21011;BME280;10663;42.714;23.274;2023-11-18T07:19:42;94310.88;;;5.02;73.75
21011;BME280;10663;42.714;23.274;2023-11-18T07:21:13;94309.78;;;5.14;73.14
21011;BME280;10663;42.714;23.274;2023-11-18T07:22:44;94298.81;;;5.17;73.50
21011;BME280;10663;42.714;23.274;2023-11-18T07:24:15;94314.00;;;5.15;73.33
21011;BME280;10663;42.714;23.274;2023-11-18T07:25:47;94316.06;;;5.13;73.49
21011;BME280;10663;42.714;23.274;2023-11-18T07:27:18;94304.94;;;5.06;73.41
21011;BME280;10663;42.714;23.274;2023-11-18T07:28:49;94338.03;;;5.07;73.17
21011;BME280;10663;42.714;23.274;2023-11-18T07:30:20;94306.59;;;5.12;72.97
21011;BME280;10663;42.714;23.274;2023-11-18T07:31:50;94320.69;;;5.06;73.43
21011;BME280;10663;42.714;23.274;2023-11-18T07:33:21;94302.22;;;5.01;73.20
21011;BME280;10663;42.714;23.274;2023-11-18T07:34:53;94308.59;;;5.05;73.61
21011;BME280;10663;42.714;23.274;2023-11-18T07:36:26;94324.16;;;4.95;73.35
21011;BME280;10663;42.714;23.274;2023-11-18T07:37:56;94313.22;;;4.81;73.68
21011;BME280;10663;42.714;23.274;2023-11-18T07:39:29;94325.41;;;4.59;74.49
21011;BME280;10663;42.714;23.274;2023-11-18T07:41:14;94340.88;;;4.72;73.88
21011;BME280;10663;42.714;23.274;2023-11-18T07:42:55;94341.88;;;4.55;74.42
21011;BME280;10663;42.714;23.274;2023-11-18T07:44:32;94339.91;;;4.62;74.39
21011;BME280;10663;42.714;23.274;2023-11-18T07:46:03;94343.09;;;4.97;74.07
21011;BME280;10663;42.714;23.274;2023-11-18T07:47:34;94329.66;;;4.77;74.20
21011;BME280;10663;42.714;23.274;2023-11-18T07:49:05;94341.75;;;4.95;73.60
21011;BME280;10663;42.714;23.274;2023-11-18T07:50:40;94332.59;;;4.97;73.49
21011;BME280;10663;42.714;23.274;2023-11-18T07:52:11;94349.53;;;4.89;73.50
21011;BME280;10663;42.714;23.274;2023-11-18T07:53:42;94291.75;;;4.84;73.76
21011;BME280;10663;42.714;23.274;2023-11-18T07:55:13;94336.88;;;4.70;73.57
21011;BME280;10663;42.714;23.274;2023-11-18T07:56:44;94323.59;;;4.76;73.85
21011;BME280;10663;42.714;23.274;2023-11-18T07:58:18;94321.47;;;4.90;73.82
21011;BME280;10663;42.714;23.274;2023-11-18T07:59:53;94301.69;;;4.82;72.76
21011;BME280;10663;42.714;23.274;2023-11-18T08:01:23;94315.44;;;4.89;73.13
21011;BME280;10663;42.714;23.274;2023-11-18T08:02:54;94289.75;;;5.08;73.32
21011;BME280;10663;42.714;23.274;2023-11-18T08:04:25;94346.81;;;4.68;73.14
21011;BME280;10663;42.714;23.274;2023-11-18T08:05:56;94359.28;;;4.77;73.45